createdAt,value
2023-05-24T00:01:57.632Z,13.30
2023-05-24T00:04:30.983Z,13.20
2023-05-24T00:07:04.992Z,13.20
2023-05-24T00:09:39.080Z,13.20
2023-05-24T00:12:13.068Z,13.20
2023-05-24T00:14:47.559Z,13.20
2023-05-24T00:17:23.133Z,13.10
2023-05-24T00:19:57.008Z,13.10
2023-05-24T00:22:30.923Z,13.10
2023-05-24T00:25:05.046Z,13.00
2023-05-24T00:27:39.057Z,13.00
2023-05-24T00:30:14.019Z,13.00
2023-05-24T00:32:49.191Z,13.00
2023-05-24T00:35:23.036Z,12.90
2023-05-24T00:37:57.752Z,13.00
2023-05-24T00:40:31.748Z,12.90
2023-05-24T00:43:05.399Z,12.80
2023-05-24T00:45:39.106Z,12.80
2023-05-24T00:48:15.914Z,12.80
2023-05-24T00:50:49.833Z,12.80
2023-05-24T00:53:24.799Z,12.70
2023-05-24T00:56:00.318Z,12.70
2023-05-24T00:58:34.918Z,12.60
2023-05-24T01:01:08.951Z,12.60
2023-05-24T01:03:44.518Z,12.60
2023-05-24T01:06:19.235Z,12.80
2023-05-24T01:09:18.899Z,12.50
2023-05-24T01:12:11.523Z,12.50
2023-05-24T01:14:59.641Z,12.50
2023-05-24T01:17:43.198Z,12.40
2023-05-24T01:20:22.911Z,12.40
2023-05-24T01:23:34.398Z,12.40
2023-05-24T01:26:31.307Z,12.30
2023-05-24T01:29:08.043Z,12.30
2023-05-24T01:31:42.789Z,12.40
2023-05-24T01:34:16.469Z,12.20
2023-05-24T01:36:50.453Z,12.20
2023-05-24T01:39:27.546Z,12.10
2023-05-24T01:42:13.276Z,12.10
2023-05-24T01:45:00.620Z,12.10
2023-05-24T01:47:49.111Z,12.00
2023-05-24T01:50:33.174Z,12.00
2023-05-24T01:53:11.020Z,11.90
2023-05-24T01:55:50.359Z,11.90
2023-05-24T01:58:27.116Z,11.90
2023-05-24T02:01:03.909Z,11.80
2023-05-24T02:03:39.870Z,11.80
2023-05-24T02:06:13.887Z,11.80
2023-05-24T02:08:48.232Z,11.70
2023-05-24T02:11:23.206Z,11.70
2023-05-24T02:13:57.108Z,11.70
2023-05-24T02:16:33.607Z,11.60
2023-05-24T02:19:07.487Z,11.60
2023-05-24T02:21:41.740Z,11.60
2023-05-24T02:24:15.581Z,11.50
2023-05-24T02:26:49.587Z,11.60
2023-05-24T02:29:24.164Z,11.50
2023-05-24T02:31:59.761Z,11.50
2023-05-24T02:34:33.236Z,11.60
2023-05-24T02:37:07.737Z,11.40
2023-05-24T02:39:42.485Z,11.40
2023-05-24T02:42:16.267Z,11.30
2023-05-24T02:44:52.766Z,11.30
2023-05-24T02:47:28.834Z,11.20
2023-05-24T02:50:02.930Z,11.20
2023-05-24T02:52:38.910Z,11.20
2023-05-24T02:55:12.740Z,11.10
2023-05-24T02:57:48.373Z,11.10
2023-05-24T03:00:23.946Z,11.10
2023-05-24T03:03:03.070Z,11.10
2023-05-24T03:05:36.792Z,11.00
2023-05-24T03:08:10.759Z,11.00
2023-05-24T03:10:44.993Z,11.00
2023-05-24T03:13:19.238Z,11.00
2023-05-24T03:15:53.223Z,10.90
2023-05-24T03:18:30.406Z,10.90
2023-05-24T03:21:04.582Z,10.90
2023-05-24T03:23:38.549Z,10.90
2023-05-24T03:26:13.974Z,10.90
2023-05-24T03:28:47.855Z,10.90
2023-05-24T03:31:24.524Z,10.90
2023-05-24T03:34:00.164Z,10.80
2023-05-24T03:36:35.203Z,10.80
2023-05-24T03:39:09.858Z,10.80
2023-05-24T03:41:44.005Z,10.80
2023-05-24T03:44:17.849Z,10.80
2023-05-24T03:46:52.126Z,10.80
2023-05-24T03:49:27.370Z,10.70
2023-05-24T03:52:01.335Z,10.90
2023-05-24T03:54:36.000Z,10.70
2023-05-24T03:57:10.190Z,10.70
2023-05-24T03:59:46.498Z,10.70
2023-05-24T04:02:20.334Z,10.70
2023-05-24T04:04:56.183Z,10.70
2023-05-24T04:07:29.921Z,10.70
2023-05-24T04:10:06.791Z,10.70
2023-05-24T04:12:42.999Z,10.60
2023-05-24T04:15:18.315Z,10.70
2023-05-24T04:17:55.454Z,10.70
2023-05-24T04:20:32.829Z,10.70
2023-05-24T04:23:07.654Z,10.70
2023-05-24T04:25:42.735Z,10.60
2023-05-24T04:28:16.788Z,10.90
2023-05-24T04:30:50.919Z,10.70
2023-05-24T04:33:25.187Z,10.70
2023-05-24T04:36:02.104Z,10.70
2023-05-24T04:38:36.305Z,10.80
2023-05-24T04:41:12.739Z,10.80
2023-05-24T04:43:47.511Z,11.00
2023-05-24T04:46:21.173Z,10.80
2023-05-24T04:48:58.596Z,10.90
2023-05-24T04:51:34.509Z,10.90
2023-05-24T04:54:09.673Z,10.90
2023-05-24T04:56:43.579Z,11.00
2023-05-24T04:59:18.534Z,11.10
2023-05-24T05:01:54.080Z,11.10
2023-05-24T05:04:28.116Z,11.10
2023-05-24T05:07:03.833Z,11.20
2023-05-24T05:09:37.445Z,11.30
2023-05-24T05:12:11.325Z,11.40
2023-05-24T05:14:45.168Z,11.40
2023-05-24T05:17:19.387Z,11.50
2023-05-24T05:19:53.254Z,11.50
2023-05-24T05:22:30.705Z,11.60
2023-05-24T05:25:05.436Z,11.60
2023-05-24T05:27:39.202Z,11.70
2023-05-24T05:30:14.823Z,11.70
2023-05-24T05:32:48.538Z,11.80
2023-05-24T05:35:22.741Z,11.80
2023-05-24T05:37:58.048Z,11.90
2023-05-24T05:40:31.950Z,12.00
2023-05-24T05:43:09.899Z,12.00
2023-05-24T05:45:43.884Z,12.00
2023-05-24T05:48:18.121Z,12.10
2023-05-24T05:50:52.049Z,12.10
2023-05-24T05:53:27.771Z,12.20
2023-05-24T05:56:01.485Z,12.30
2023-05-24T05:58:34.996Z,12.30
2023-05-24T06:01:08.794Z,12.40
2023-05-24T06:03:42.845Z,12.40
2023-05-24T06:06:16.749Z,12.50
2023-05-24T06:08:51.944Z,12.60
2023-05-24T06:11:27.357Z,12.60
2023-05-24T06:14:01.878Z,12.80
2023-05-24T06:16:36.995Z,12.60
2023-05-24T06:19:10.853Z,12.70
2023-05-24T06:21:48.523Z,12.70
2023-05-24T06:24:25.218Z,12.80
2023-05-24T06:27:00.258Z,12.90
2023-05-24T06:29:34.305Z,12.90
2023-05-24T06:32:08.602Z,12.90
2023-05-24T06:34:43.631Z,13.00
2023-05-24T06:37:17.259Z,13.10
2023-05-24T06:39:52.499Z,13.20
2023-05-24T06:42:26.283Z,13.20
2023-05-24T06:45:00.152Z,13.30
2023-05-24T06:47:34.137Z,13.40
2023-05-24T06:50:10.439Z,13.40
2023-05-24T06:52:44.538Z,13.50
2023-05-24T06:55:20.898Z,13.60
2023-05-24T06:57:54.297Z,13.70
2023-05-24T07:00:29.256Z,13.70
2023-05-24T07:03:03.089Z,13.80
2023-05-24T07:05:37.664Z,13.90
2023-05-24T07:08:14.940Z,14.00
2023-05-24T07:10:50.472Z,14.00
2023-05-24T07:13:24.726Z,14.10
2023-05-24T07:15:58.999Z,14.20
2023-05-24T07:18:33.250Z,14.20
2023-05-24T07:21:07.394Z,14.30
2023-05-24T07:23:41.520Z,14.30
2023-05-24T07:26:16.676Z,14.40
2023-05-24T07:28:51.961Z,14.50
2023-05-24T07:31:28.066Z,14.50
2023-05-24T07:34:02.132Z,14.60
2023-05-24T07:36:36.091Z,14.70
2023-05-24T07:39:11.471Z,14.70
2023-05-24T07:41:47.217Z,14.80
2023-05-24T07:44:21.263Z,14.90
2023-05-24T07:46:56.138Z,15.00
2023-05-24T07:49:31.791Z,15.10
2023-05-24T07:52:06.587Z,15.20
2023-05-24T07:54:41.235Z,15.30
2023-05-24T07:57:16.818Z,15.30
2023-05-24T07:59:50.988Z,15.40
2023-05-24T08:02:24.804Z,15.40
2023-05-24T08:04:59.067Z,15.40
2023-05-24T08:07:32.856Z,15.50
2023-05-24T08:10:08.496Z,15.60
2023-05-24T08:12:44.011Z,15.60
2023-05-24T08:15:17.733Z,15.70
2023-05-24T08:17:52.958Z,15.80
2023-05-24T08:20:26.989Z,15.90
2023-05-24T08:23:01.583Z,15.90
2023-05-24T08:25:36.288Z,15.90
2023-05-24T08:28:12.090Z,16.00
2023-05-24T08:30:45.967Z,16.00
2023-05-24T08:33:20.173Z,16.00
2023-05-24T08:35:54.643Z,16.00
2023-05-24T08:38:29.773Z,16.00
2023-05-24T08:41:07.430Z,16.00
2023-05-24T08:43:45.161Z,16.00
2023-05-24T08:46:20.334Z,16.00
2023-05-24T08:48:54.543Z,16.10
2023-05-24T08:51:29.193Z,16.10
2023-05-24T08:54:04.454Z,16.10
2023-05-24T08:56:40.906Z,16.00
2023-05-24T08:59:18.466Z,16.00
2023-05-24T09:01:56.160Z,16.00
2023-05-24T09:04:31.320Z,16.00
2023-05-24T09:07:06.079Z,16.00
2023-05-24T09:09:45.653Z,16.00
2023-05-24T09:12:35.600Z,16.00
2023-05-24T09:15:14.163Z,16.10
2023-05-24T09:17:48.839Z,16.10
2023-05-24T09:20:23.730Z,16.10
2023-05-24T09:22:58.031Z,16.20
2023-05-24T09:25:32.513Z,16.20
2023-05-24T09:28:09.247Z,16.30
2023-05-24T09:30:46.174Z,16.30
2023-05-24T09:33:19.930Z,16.40
2023-05-24T09:36:01.210Z,16.50
2023-05-24T09:38:36.934Z,16.60
2023-05-24T09:41:11.131Z,16.70
2023-05-24T09:43:51.751Z,16.80
2023-05-24T09:46:27.153Z,16.80
2023-05-24T09:49:04.122Z,16.90
2023-05-24T09:51:40.345Z,16.90
2023-05-24T09:54:14.963Z,17.00
2023-05-24T09:56:50.274Z,17.10
2023-05-24T09:59:24.268Z,17.20
2023-05-24T10:02:11.961Z,17.20
2023-05-24T10:04:45.963Z,17.30
2023-05-24T10:07:20.790Z,17.30
2023-05-24T10:09:55.686Z,17.40
2023-05-24T10:12:33.107Z,17.40
2023-05-24T10:15:08.957Z,17.50
2023-05-24T10:17:44.488Z,17.50
2023-05-24T10:20:19.060Z,17.50
2023-05-24T10:22:57.142Z,17.60
2023-05-24T10:25:34.042Z,17.60
2023-05-24T10:28:14.613Z,17.60
2023-05-24T10:31:04.375Z,17.60
2023-05-24T10:33:41.709Z,17.50
2023-05-24T10:36:17.674Z,17.50
2023-05-24T10:38:53.681Z,17.50
2023-05-24T10:41:28.729Z,17.40
2023-05-24T10:47:11.198Z,17.40
2023-05-24T10:49:54.399Z,17.40
2023-05-24T10:52:38.262Z,17.30
2023-05-24T10:55:13.849Z,17.30
2023-05-24T10:57:48.059Z,17.30
2023-05-24T11:00:36.356Z,17.30
2023-05-24T11:03:12.873Z,17.30
2023-05-24T11:06:04.653Z,17.30
2023-05-24T11:08:45.258Z,17.30
2023-05-24T11:11:31.897Z,17.30
2023-05-24T11:14:07.811Z,17.40
2023-05-24T11:16:41.759Z,17.40
2023-05-24T11:19:20.853Z,17.50
2023-05-24T11:22:00.141Z,17.60
2023-05-24T11:24:35.360Z,17.60
2023-05-24T11:27:09.712Z,17.70
2023-05-24T11:29:45.096Z,17.70
2023-05-24T11:32:21.135Z,17.80
2023-05-24T11:34:56.326Z,17.80
2023-05-24T11:37:45.558Z,17.80
2023-05-24T11:40:20.485Z,17.90
2023-05-24T11:42:54.393Z,17.90
2023-05-24T11:45:30.823Z,17.90
2023-05-24T11:48:07.409Z,17.90
2023-05-24T11:50:49.113Z,17.90
2023-05-24T11:53:24.969Z,17.90
2023-05-24T11:55:58.509Z,17.90
2023-05-24T11:58:51.459Z,17.90
2023-05-24T12:01:27.404Z,17.80
2023-05-24T12:04:01.073Z,17.80
2023-05-24T12:06:40.425Z,17.80
2023-05-24T12:09:18.390Z,17.80
2023-05-24T12:11:54.538Z,17.80
2023-05-24T12:14:32.367Z,17.80
2023-05-24T12:17:06.455Z,17.80
2023-05-24T12:19:39.917Z,17.80
2023-05-24T12:22:13.556Z,17.80
2023-05-24T12:24:52.628Z,17.90
2023-05-24T12:27:31.222Z,17.90
2023-05-24T12:30:10.418Z,17.90
2023-05-24T12:32:44.362Z,17.90
2023-05-24T12:35:20.151Z,17.90
2023-05-24T12:38:01.582Z,17.90
2023-05-24T12:40:36.751Z,18.00
2023-05-24T12:43:10.868Z,18.10
2023-05-24T12:45:44.430Z,18.10
2023-05-24T12:48:18.391Z,18.20
2023-05-24T12:50:52.654Z,18.20
2023-05-24T12:53:27.069Z,18.30
2023-05-24T12:56:02.566Z,18.30
2023-05-24T12:58:36.356Z,18.30
2023-05-24T13:01:10.221Z,18.30
2023-05-24T13:03:44.499Z,18.30
2023-05-24T13:06:18.331Z,18.30
2023-05-24T13:08:52.921Z,18.30
2023-05-24T13:11:29.034Z,18.30
2023-05-24T13:14:04.470Z,18.40
2023-05-24T13:16:39.731Z,18.40
2023-05-24T13:19:14.377Z,18.50
2023-05-24T13:21:48.304Z,18.50
2023-05-24T13:24:22.093Z,18.60
2023-05-24T13:26:58.107Z,18.60
2023-05-24T13:29:39.300Z,18.70
2023-05-24T13:32:16.980Z,18.80
2023-05-24T13:34:50.776Z,18.80
2023-05-24T13:37:26.159Z,18.90
2023-05-24T13:40:00.066Z,18.90
2023-05-24T13:42:35.417Z,19.00
2023-05-24T13:45:11.114Z,19.00
2023-05-24T13:47:45.939Z,19.00
2023-05-24T13:50:20.844Z,19.00
2023-05-24T13:52:54.891Z,19.10
2023-05-24T13:55:30.189Z,19.10
2023-05-24T13:58:06.418Z,19.10
2023-05-24T14:00:40.269Z,19.10
2023-05-24T14:03:15.985Z,19.10
2023-05-24T14:05:51.087Z,19.10
2023-05-24T14:08:25.021Z,19.10
2023-05-24T14:10:58.922Z,19.10
2023-05-24T14:16:13.078Z,19.10
2023-05-24T14:18:49.109Z,19.10
2023-05-24T14:21:23.724Z,19.00
2023-05-24T14:24:00.417Z,19.00
2023-05-24T14:26:34.617Z,19.00
2023-05-24T14:29:11.080Z,19.00
2023-05-24T14:31:45.107Z,18.90
2023-05-24T14:34:19.258Z,18.90
2023-05-24T14:36:55.966Z,18.90
2023-05-24T14:39:29.930Z,18.80
2023-05-24T14:42:04.161Z,18.80
2023-05-24T14:44:39.222Z,18.80
2023-05-24T14:47:14.265Z,18.80
2023-05-24T14:49:48.000Z,18.80
2023-05-24T14:52:23.781Z,18.90
2023-05-24T14:54:57.589Z,18.90
2023-05-24T14:57:31.419Z,19.00
2023-05-24T15:00:10.538Z,19.10
2023-05-24T15:02:44.738Z,19.10
2023-05-24T15:05:18.264Z,19.20
2023-05-24T15:07:52.093Z,19.20
2023-05-24T15:10:25.526Z,19.20
2023-05-24T15:13:00.010Z,19.30
2023-05-24T15:15:35.231Z,19.30
2023-05-24T15:18:09.880Z,19.30
2023-05-24T15:20:44.768Z,19.30
2023-05-24T15:23:20.658Z,19.30
2023-05-24T15:25:55.398Z,19.30
2023-05-24T15:28:29.686Z,19.20
2023-05-24T15:31:04.828Z,19.20
2023-05-24T15:33:38.764Z,19.20
2023-05-24T15:36:14.401Z,19.20
2023-05-24T15:38:47.979Z,19.20
2023-05-24T15:41:21.871Z,19.20
2023-05-24T15:43:55.399Z,19.20
2023-05-24T15:46:31.135Z,19.20
2023-05-24T15:49:05.533Z,19.20
2023-05-24T15:54:16.445Z,19.30
2023-05-24T15:56:50.131Z,19.40
2023-05-24T15:59:23.612Z,19.40
2023-05-24T16:01:59.022Z,19.40
2023-05-24T16:04:32.584Z,19.50
2023-05-24T16:07:07.084Z,19.60
2023-05-24T16:09:42.158Z,19.70
2023-05-24T16:12:15.897Z,19.70
2023-05-24T16:14:49.833Z,19.80
2023-05-24T16:17:25.467Z,19.90
2023-05-24T16:19:59.582Z,19.90
2023-05-24T16:22:37.825Z,20.00
2023-05-24T16:25:12.481Z,20.00
2023-05-24T16:27:47.144Z,20.00
2023-05-24T16:30:20.821Z,20.00
2023-05-24T16:32:56.064Z,20.00
2023-05-24T16:35:31.365Z,20.00
2023-05-24T16:38:05.167Z,20.00
2023-05-24T16:40:38.741Z,19.90
2023-05-24T16:43:12.432Z,19.90
2023-05-24T16:45:47.893Z,19.90
2023-05-24T16:48:28.751Z,19.90
2023-05-24T16:51:02.672Z,19.90
2023-05-24T16:53:39.556Z,19.90
2023-05-24T16:56:13.275Z,19.90
2023-05-24T16:58:47.090Z,19.80
2023-05-24T17:01:20.999Z,19.80
2023-05-24T17:03:56.433Z,19.80
2023-05-24T17:06:30.727Z,19.80
2023-05-24T17:09:05.144Z,19.80
2023-05-24T17:11:39.227Z,19.70
2023-05-24T17:14:13.162Z,19.70
2023-05-24T17:16:48.578Z,19.70
2023-05-24T17:19:25.574Z,19.60
2023-05-24T17:21:59.917Z,19.60
2023-05-24T17:24:33.548Z,19.60
2023-05-24T17:27:08.745Z,19.60
2023-05-24T17:29:44.551Z,19.50
2023-05-24T17:32:18.225Z,19.50
2023-05-24T17:34:53.578Z,19.50
2023-05-24T17:37:27.326Z,19.50
2023-05-24T17:40:01.123Z,19.50
2023-05-24T17:42:35.302Z,19.40
2023-05-24T17:45:11.180Z,19.40
2023-05-24T17:47:45.464Z,19.40
2023-05-24T17:50:20.718Z,19.40
2023-05-24T17:52:54.596Z,19.40
2023-05-24T17:55:29.789Z,19.30
2023-05-24T17:58:04.269Z,19.30
2023-05-24T18:00:38.684Z,19.20
2023-05-24T18:03:13.452Z,19.20
2023-05-24T18:05:49.044Z,19.20
2023-05-24T18:08:23.204Z,19.20
2023-05-24T18:10:57.478Z,19.20
2023-05-24T18:13:31.552Z,19.10
2023-05-24T18:16:05.385Z,19.10
2023-05-24T18:18:39.547Z,19.10
2023-05-24T18:21:15.084Z,19.10
2023-05-24T18:23:48.771Z,19.00
2023-05-24T18:26:22.454Z,19.00
2023-05-24T18:28:57.413Z,19.00
2023-05-24T18:31:31.625Z,19.00
2023-05-24T18:34:05.836Z,19.00
2023-05-24T18:36:41.591Z,19.00
2023-05-24T18:39:16.885Z,18.90
2023-05-24T18:41:51.840Z,18.90
2023-05-24T18:44:25.443Z,18.90
2023-05-24T18:46:59.615Z,18.90
2023-05-24T18:49:34.544Z,18.90
2023-05-24T18:52:09.982Z,18.90
2023-05-24T18:54:43.826Z,18.80
2023-05-24T18:57:17.649Z,18.80
2023-05-24T18:59:51.609Z,18.80
2023-05-24T19:02:25.591Z,18.80
2023-05-24T19:04:59.175Z,18.80
2023-05-24T19:07:35.861Z,18.80
2023-05-24T19:10:11.910Z,18.80
2023-05-24T19:12:45.554Z,18.80
2023-05-24T19:15:19.089Z,18.70
2023-05-24T19:17:53.405Z,18.70
2023-05-24T19:20:27.086Z,18.70
2023-05-24T19:23:02.225Z,18.70
2023-05-24T19:25:41.959Z,18.60
2023-05-24T19:28:16.314Z,18.60
2023-05-24T19:30:49.777Z,18.60
2023-05-24T19:33:23.479Z,18.60
2023-05-24T19:35:57.022Z,18.30
2023-05-24T19:38:31.983Z,18.60
2023-05-24T19:41:05.681Z,18.50
2023-05-24T19:43:39.486Z,18.50
2023-05-24T19:46:15.115Z,18.50
2023-05-24T19:48:48.602Z,18.50
2023-05-24T19:51:22.378Z,18.40
2023-05-24T19:53:57.445Z,18.40
2023-05-24T19:56:31.052Z,18.40
2023-05-24T19:59:04.593Z,18.30
2023-05-24T20:01:39.237Z,18.30
2023-05-24T20:04:13.783Z,18.20
2023-05-24T20:06:47.470Z,18.20
2023-05-24T20:09:23.223Z,18.10
2023-05-24T20:11:57.083Z,18.10
2023-05-24T20:14:31.965Z,18.00
2023-05-24T20:17:06.603Z,18.00
2023-05-24T20:19:40.171Z,17.90
2023-05-24T20:22:14.886Z,17.80
2023-05-24T20:24:51.556Z,17.80
2023-05-24T20:27:25.890Z,17.70
2023-05-24T20:29:59.267Z,17.60
2023-05-24T20:32:33.183Z,17.60
2023-05-24T20:35:08.788Z,17.50
2023-05-24T20:37:42.697Z,17.50
2023-05-24T20:40:25.181Z,17.40
2023-05-24T20:42:58.848Z,17.30
2023-05-24T20:45:32.836Z,17.30
2023-05-24T20:48:07.027Z,17.20
2023-05-24T20:50:41.337Z,17.20
2023-05-24T20:53:21.197Z,17.10
2023-05-24T20:55:57.288Z,17.00
2023-05-24T20:58:31.777Z,17.00
2023-05-24T21:01:05.671Z,16.90
2023-05-24T21:03:39.373Z,16.90
2023-05-24T21:06:13.968Z,16.80
2023-05-24T21:08:48.766Z,16.80
2023-05-24T21:11:24.177Z,16.70
2023-05-24T21:13:58.538Z,16.70
2023-05-24T21:16:33.066Z,16.60
2023-05-24T21:19:07.159Z,16.60
2023-05-24T21:21:42.004Z,16.50
2023-05-24T21:24:16.505Z,16.50
2023-05-24T21:26:52.227Z,16.40
2023-05-24T21:29:26.263Z,16.40
2023-05-24T21:32:01.646Z,16.30
2023-05-24T21:34:36.097Z,16.30
2023-05-24T21:37:10.020Z,16.30
2023-05-24T21:39:44.703Z,16.20
2023-05-24T21:42:20.257Z,16.20
2023-05-24T21:44:54.167Z,16.10
2023-05-24T21:47:27.704Z,16.10
2023-05-24T21:50:01.597Z,16.00
2023-05-24T21:52:35.104Z,16.00
2023-05-24T21:55:10.367Z,15.90
2023-05-24T21:57:45.889Z,15.90
2023-05-24T22:00:22.093Z,15.80
2023-05-24T22:02:56.426Z,15.80
2023-05-24T22:05:30.101Z,15.70
2023-05-24T22:08:04.058Z,15.70
2023-05-24T22:10:37.673Z,15.60
2023-05-24T22:13:13.222Z,15.60
2023-05-24T22:15:47.302Z,15.50
2023-05-24T22:18:21.545Z,15.50
2023-05-24T22:20:58.571Z,15.50
2023-05-24T22:23:32.054Z,15.40
2023-05-24T22:26:06.309Z,15.40
2023-05-24T22:29:03.872Z,15.30
2023-05-24T22:31:37.814Z,15.30
2023-05-24T22:34:13.430Z,15.20
2023-05-24T22:36:47.129Z,15.20
2023-05-24T22:39:20.954Z,15.10
2023-05-24T22:41:54.837Z,15.10
2023-05-24T22:44:30.189Z,15.00
2023-05-24T22:47:04.059Z,15.00
2023-05-24T22:49:37.770Z,14.90
2023-05-24T22:52:11.991Z,14.90
2023-05-24T22:54:46.088Z,14.90
2023-05-24T22:57:21.921Z,14.90
2023-05-24T22:59:57.290Z,14.80
2023-05-24T23:02:31.062Z,14.80
2023-05-24T23:05:05.704Z,14.70
2023-05-24T23:07:39.988Z,14.70
2023-05-24T23:10:13.750Z,14.70
2023-05-24T23:12:47.457Z,14.70
2023-05-24T23:15:22.749Z,14.60
2023-05-24T23:17:57.591Z,14.60
2023-05-24T23:20:32.171Z,14.60
2023-05-24T23:23:07.284Z,14.60
2023-05-24T23:25:41.639Z,14.60
2023-05-24T23:28:16.039Z,14.60
2023-05-24T23:30:51.392Z,14.60
2023-05-24T23:33:25.074Z,14.60
2023-05-24T23:35:59.091Z,14.60
2023-05-24T23:38:33.115Z,14.50
2023-05-24T23:41:07.078Z,14.50
2023-05-24T23:43:40.602Z,14.50
2023-05-24T23:46:17.335Z,14.50
2023-05-24T23:48:51.375Z,14.50
2023-05-24T23:51:25.260Z,14.50
2023-05-24T23:53:58.878Z,14.50
2023-05-24T23:56:32.651Z,14.50
2023-05-24T23:59:06.594Z,14.40
